sensor_id;sensor_type;location;lat;lon;timestamp;P1;durP1;ratioP1;P2;durP2;ratioP2
53503;SDS011;39387;50.998;22.340;2022-07-01T00:01:31;9.45;;;7.82;;
53503;SDS011;39387;50.998;22.340;2022-07-01T00:03:59;9.52;;;8.57;;
53503;SDS011;39387;50.998;22.340;2022-07-01T00:06:27;9.00;;;8.10;;
53503;SDS011;39387;50.998;22.340;2022-07-01T00:08:54;9.38;;;8.38;;
53503;SDS011;39387;50.998;22.340;2022-07-01T00:11:21;8.77;;;7.88;;
53503;SDS011;39387;50.998;22.340;2022-07-01T00:13:48;9.50;;;8.60;;
53503;SDS011;39387;50.998;22.340;2022-07-01T00:16:16;8.95;;;8.05;;
53503;SDS011;39387;50.998;22.340;2022-07-01T00:18:43;8.98;;;8.10;;
53503;SDS011;39387;50.998;22.340;2022-07-01T00:21:12;8.80;;;7.65;;
53503;SDS011;39387;50.998;22.340;2022-07-01T00:23:39;9.15;;;8.25;;
53503;SDS011;39387;50.998;22.340;2022-07-01T00:26:07;8.60;;;7.80;;
53503;SDS011;39387;50.998;22.340;2022-07-01T00:28:34;8.25;;;7.45;;
53503;SDS011;39387;50.998;22.340;2022-07-01T00:31:02;8.88;;;8.05;;
53503;SDS011;39387;50.998;22.340;2022-07-01T00:33:29;8.77;;;7.93;;
53503;SDS011;39387;50.998;22.340;2022-07-01T00:35:56;10.27;;;9.27;;
53503;SDS011;39387;50.998;22.340;2022-07-01T00:38:26;10.27;;;9.27;;
53503;SDS011;39387;50.998;22.340;2022-07-01T00:40:53;9.15;;;8.25;;
53503;SDS011;39387;50.998;22.340;2022-07-01T00:43:21;8.80;;;8.00;;
53503;SDS011;39387;50.998;22.340;2022-07-01T00:45:50;10.32;;;9.32;;
53503;SDS011;39387;50.998;22.340;2022-07-01T00:48:18;9.20;;;8.30;;
53503;SDS011;39387;50.998;22.340;2022-07-01T00:50:45;9.27;;;8.38;;
53503;SDS011;39387;50.998;22.340;2022-07-01T00:53:13;9.52;;;8.57;;
53503;SDS011;39387;50.998;22.340;2022-07-01T00:55:42;9.52;;;8.63;;
53503;SDS011;39387;50.998;22.340;2022-07-01T00:58:09;9.15;;;8.25;;
53503;SDS011;39387;50.998;22.340;2022-07-01T01:00:37;9.27;;;8.38;;
53503;SDS011;39387;50.998;22.340;2022-07-01T01:03:05;9.90;;;8.90;;
53503;SDS011;39387;50.998;22.340;2022-07-01T01:05:33;9.35;;;8.35;;
53503;SDS011;39387;50.998;22.340;2022-07-01T01:08:00;9.40;;;8.50;;
53503;SDS011;39387;50.998;22.340;2022-07-01T01:10:28;9.65;;;8.65;;
53503;SDS011;39387;50.998;22.340;2022-07-01T01:12:57;10.52;;;9.43;;
53503;SDS011;39387;50.998;22.340;2022-07-01T01:15:24;9.90;;;8.90;;
53503;SDS011;39387;50.998;22.340;2022-07-01T01:17:52;9.70;;;8.80;;
53503;SDS011;39387;50.998;22.340;2022-07-01T01:20:21;9.70;;;8.70;;
53503;SDS011;39387;50.998;22.340;2022-07-01T01:22:50;9.05;;;8.15;;
53503;SDS011;39387;50.998;22.340;2022-07-01T01:25:17;9.63;;;8.63;;
53503;SDS011;39387;50.998;22.340;2022-07-01T01:27:44;9.55;;;8.65;;
53503;SDS011;39387;50.998;22.340;2022-07-01T01:30:12;9.27;;;8.38;;
53503;SDS011;39387;50.998;22.340;2022-07-01T01:32:39;9.93;;;8.80;;
53503;SDS011;39387;50.998;22.340;2022-07-01T01:35:07;9.10;;;8.20;;
53503;SDS011;39387;50.998;22.340;2022-07-01T01:37:35;9.45;;;8.55;;
53503;SDS011;39387;50.998;22.340;2022-07-01T01:40:04;9.75;;;8.85;;
53503;SDS011;39387;50.998;22.340;2022-07-01T01:42:32;9.55;;;8.65;;
53503;SDS011;39387;50.998;22.340;2022-07-01T01:44:59;9.68;;;8.77;;
53503;SDS011;39387;50.998;22.340;2022-07-01T01:47:26;9.77;;;8.77;;
53503;SDS011;39387;50.998;22.340;2022-07-01T01:49:54;9.95;;;8.95;;
53503;SDS011;39387;50.998;22.340;2022-07-01T01:52:21;10.27;;;9.27;;
53503;SDS011;39387;50.998;22.340;2022-07-01T01:54:48;9.57;;;8.63;;
53503;SDS011;39387;50.998;22.340;2022-07-01T01:57:17;10.35;;;9.27;;
53503;SDS011;39387;50.998;22.340;2022-07-01T01:59:44;10.40;;;9.30;;
53503;SDS011;39387;50.998;22.340;2022-07-01T02:02:11;9.73;;;8.82;;
53503;SDS011;39387;50.998;22.340;2022-07-01T02:04:39;9.75;;;8.68;;
53503;SDS011;39387;50.998;22.340;2022-07-01T02:07:06;11.02;;;9.57;;
53503;SDS011;39387;50.998;22.340;2022-07-01T02:09:33;10.45;;;9.35;;
53503;SDS011;39387;50.998;22.340;2022-07-01T02:12:01;10.15;;;9.15;;
53503;SDS011;39387;50.998;22.340;2022-07-01T02:14:31;12.13;;;10.13;;
53503;SDS011;39387;50.998;22.340;2022-07-01T02:16:58;10.32;;;9.13;;
53503;SDS011;39387;50.998;22.340;2022-07-01T02:19:25;10.07;;;9.07;;
53503;SDS011;39387;50.998;22.340;2022-07-01T02:21:52;12.15;;;10.38;;
53503;SDS011;39387;50.998;22.340;2022-07-01T02:24:20;10.27;;;9.25;;
53503;SDS011;39387;50.998;22.340;2022-07-01T02:26:47;10.18;;;9.13;;
53503;SDS011;39387;50.998;22.340;2022-07-01T02:29:14;10.15;;;9.15;;
53503;SDS011;39387;50.998;22.340;2022-07-01T02:31:42;9.43;;;8.50;;
53503;SDS011;39387;50.998;22.340;2022-07-01T02:34:10;10.57;;;9.52;;
53503;SDS011;39387;50.998;22.340;2022-07-01T02:36:38;11.07;;;9.93;;
53503;SDS011;39387;50.998;22.340;2022-07-01T02:39:05;11.27;;;9.15;;
53503;SDS011;39387;50.998;22.340;2022-07-01T02:41:33;11.52;;;10.07;;
53503;SDS011;39387;50.998;22.340;2022-07-01T02:44:21;11.38;;;9.82;;
53503;SDS011;39387;50.998;22.340;2022-07-01T02:46:50;11.10;;;10.00;;
53503;SDS011;39387;50.998;22.340;2022-07-01T02:49:17;10.73;;;9.63;;
53503;SDS011;39387;50.998;22.340;2022-07-01T02:51:44;11.07;;;9.90;;
53503;SDS011;39387;50.998;22.340;2022-07-01T02:54:11;10.38;;;9.27;;
53503;SDS011;39387;50.998;22.340;2022-07-01T02:56:38;11.02;;;9.85;;
53503;SDS011;39387;50.998;22.340;2022-07-01T02:59:05;10.68;;;9.60;;
53503;SDS011;39387;50.998;22.340;2022-07-01T03:01:33;10.15;;;9.05;;
53503;SDS011;39387;50.998;22.340;2022-07-01T03:04:01;11.45;;;10.20;;
53503;SDS011;39387;50.998;22.340;2022-07-01T03:06:29;10.30;;;9.30;;
53503;SDS011;39387;50.998;22.340;2022-07-01T03:08:56;11.60;;;10.40;;
53503;SDS011;39387;50.998;22.340;2022-07-01T03:11:23;10.25;;;9.25;;
53503;SDS011;39387;50.998;22.340;2022-07-01T03:13:51;11.10;;;9.90;;
53503;SDS011;39387;50.998;22.340;2022-07-01T03:16:18;10.98;;;9.88;;
53503;SDS011;39387;50.998;22.340;2022-07-01T03:18:45;11.40;;;10.30;;
53503;SDS011;39387;50.998;22.340;2022-07-01T03:21:14;11.52;;;10.30;;
53503;SDS011;39387;50.998;22.340;2022-07-01T03:23:41;11.57;;;10.38;;
53503;SDS011;39387;50.998;22.340;2022-07-01T03:26:08;11.40;;;10.20;;
53503;SDS011;39387;50.998;22.340;2022-07-01T03:28:35;11.63;;;10.43;;
53503;SDS011;39387;50.998;22.340;2022-07-01T03:31:03;10.80;;;9.73;;
53503;SDS011;39387;50.998;22.340;2022-07-01T03:33:30;10.48;;;9.45;;
53503;SDS011;39387;50.998;22.340;2022-07-01T03:35:57;11.50;;;10.27;;
53503;SDS011;39387;50.998;22.340;2022-07-01T03:38:26;10.73;;;9.73;;
53503;SDS011;39387;50.998;22.340;2022-07-01T03:40:53;11.07;;;10.00;;
53503;SDS011;39387;50.998;22.340;2022-07-01T03:43:21;10.98;;;9.88;;
53503;SDS011;39387;50.998;22.340;2022-07-01T03:45:48;11.73;;;10.13;;
53503;SDS011;39387;50.998;22.340;2022-07-01T03:48:15;10.20;;;9.20;;
53503;SDS011;39387;50.998;22.340;2022-07-01T03:50:43;10.63;;;9.52;;
53503;SDS011;39387;50.998;22.340;2022-07-01T03:53:10;9.93;;;9.02;;
53503;SDS011;39387;50.998;22.340;2022-07-01T03:55:56;9.98;;;8.98;;
53503;SDS011;39387;50.998;22.340;2022-07-01T03:58:24;10.40;;;9.40;;
53503;SDS011;39387;50.998;22.340;2022-07-01T04:00:51;10.52;;;9.50;;
53503;SDS011;39387;50.998;22.340;2022-07-01T04:03:18;10.68;;;9.68;;
53503;SDS011;39387;50.998;22.340;2022-07-01T04:05:45;11.30;;;10.18;;
53503;SDS011;39387;50.998;22.340;2022-07-01T04:08:13;10.88;;;9.77;;
53503;SDS011;39387;50.998;22.340;2022-07-01T04:10:40;10.27;;;9.30;;
53503;SDS011;39387;50.998;22.340;2022-07-01T04:13:09;11.35;;;10.10;;
53503;SDS011;39387;50.998;22.340;2022-07-01T04:15:36;10.93;;;9.80;;
53503;SDS011;39387;50.998;22.340;2022-07-01T04:18:04;10.95;;;9.85;;
53503;SDS011;39387;50.998;22.340;2022-07-01T04:20:31;11.02;;;9.93;;
53503;SDS011;39387;50.998;22.340;2022-07-01T04:22:58;10.50;;;9.55;;
53503;SDS011;39387;50.998;22.340;2022-07-01T04:25:24;10.27;;;9.30;;
53503;SDS011;39387;50.998;22.340;2022-07-01T04:27:58;11.02;;;10.02;;
53503;SDS011;39387;50.998;22.340;2022-07-01T04:30:28;10.85;;;9.85;;
53503;SDS011;39387;50.998;22.340;2022-07-01T04:32:56;10.75;;;9.65;;
53503;SDS011;39387;50.998;22.340;2022-07-01T04:35:23;11.02;;;9.80;;
53503;SDS011;39387;50.998;22.340;2022-07-01T04:37:51;9.43;;;8.50;;
53503;SDS011;39387;50.998;22.340;2022-07-01T04:40:20;10.02;;;9.13;;
53503;SDS011;39387;50.998;22.340;2022-07-01T04:42:47;10.15;;;9.25;;
53503;SDS011;39387;50.998;22.340;2022-07-01T04:45:13;12.27;;;9.30;;
53503;SDS011;39387;50.998;22.340;2022-07-01T04:47:42;9.55;;;8.57;;
53503;SDS011;39387;50.998;22.340;2022-07-01T04:50:09;9.38;;;8.68;;
53503;SDS011;39387;50.998;22.340;2022-07-01T04:52:37;10.13;;;9.25;;
53503;SDS011;39387;50.998;22.340;2022-07-01T04:55:05;9.23;;;8.40;;
53503;SDS011;39387;50.998;22.340;2022-07-01T04:57:33;9.25;;;8.38;;
53503;SDS011;39387;50.998;22.340;2022-07-01T05:00:01;9.55;;;8.75;;
53503;SDS011;39387;50.998;22.340;2022-07-01T05:04:57;9.48;;;8.65;;
53503;SDS011;39387;50.998;22.340;2022-07-01T05:07:24;9.07;;;8.27;;
53503;SDS011;39387;50.998;22.340;2022-07-01T05:09:55;9.80;;;8.77;;
53503;SDS011;39387;50.998;22.340;2022-07-01T05:12:22;8.93;;;8.23;;
53503;SDS011;39387;50.998;22.340;2022-07-01T05:14:50;9.48;;;8.68;;
53503;SDS011;39387;50.998;22.340;2022-07-01T05:17:17;10.02;;;9.13;;
53503;SDS011;39387;50.998;22.340;2022-07-01T05:19:44;9.35;;;8.55;;
53503;SDS011;39387;50.998;22.340;2022-07-01T05:22:31;11.40;;;9.30;;
53503;SDS011;39387;50.998;22.340;2022-07-01T05:24:58;9.47;;;8.67;;
53503;SDS011;39387;50.998;22.340;2022-07-01T05:27:26;9.75;;;8.85;;
53503;SDS011;39387;50.998;22.340;2022-07-01T05:29:53;9.40;;;8.60;;
53503;SDS011;39387;50.998;22.340;2022-07-01T05:32:21;10.25;;;8.38;;
53503;SDS011;39387;50.998;22.340;2022-07-01T05:34:48;10.00;;;9.00;;
53503;SDS011;39387;50.998;22.340;2022-07-01T05:37:15;9.82;;;8.93;;
53503;SDS011;39387;50.998;22.340;2022-07-01T05:42:13;8.93;;;8.13;;
53503;SDS011;39387;50.998;22.340;2022-07-01T05:44:41;10.35;;;9.45;;
53503;SDS011;39387;50.998;22.340;2022-07-01T05:47:08;9.93;;;9.10;;
53503;SDS011;39387;50.998;22.340;2022-07-01T05:49:35;9.63;;;8.65;;
53503;SDS011;39387;50.998;22.340;2022-07-01T05:52:03;9.23;;;8.43;;
53503;SDS011;39387;50.998;22.340;2022-07-01T05:54:31;10.23;;;9.27;;
53503;SDS011;39387;50.998;22.340;2022-07-01T05:57:00;8.93;;;8.13;;
53503;SDS011;39387;50.998;22.340;2022-07-01T05:59:27;9.13;;;8.32;;
53503;SDS011;39387;50.998;22.340;2022-07-01T06:01:54;9.57;;;8.77;;
53503;SDS011;39387;50.998;22.340;2022-07-01T06:04:22;9.82;;;8.70;;
53503;SDS011;39387;50.998;22.340;2022-07-01T06:06:49;9.38;;;8.48;;
53503;SDS011;39387;50.998;22.340;2022-07-01T06:09:16;9.68;;;8.75;;
53503;SDS011;39387;50.998;22.340;2022-07-01T06:11:45;9.57;;;8.60;;
53503;SDS011;39387;50.998;22.340;2022-07-01T06:14:14;9.82;;;8.90;;
53503;SDS011;39387;50.998;22.340;2022-07-01T06:16:41;10.40;;;9.40;;
53503;SDS011;39387;50.998;22.340;2022-07-01T06:19:08;9.90;;;9.00;;
53503;SDS011;39387;50.998;22.340;2022-07-01T06:21:36;9.30;;;8.50;;
53503;SDS011;39387;50.998;22.340;2022-07-01T06:24:04;9.52;;;8.55;;
53503;SDS011;39387;50.998;22.340;2022-07-01T06:26:31;9.27;;;8.48;;
53503;SDS011;39387;50.998;22.340;2022-07-01T06:28:59;9.63;;;8.02;;
53503;SDS011;39387;50.998;22.340;2022-07-01T06:31:27;9.55;;;8.57;;
53503;SDS011;39387;50.998;22.340;2022-07-01T06:33:55;8.50;;;7.77;;
53503;SDS011;39387;50.998;22.340;2022-07-01T06:36:23;9.13;;;8.23;;
53503;SDS011;39387;50.998;22.340;2022-07-01T06:38:50;10.25;;;9.20;;
53503;SDS011;39387;50.998;22.340;2022-07-01T06:41:17;9.70;;;8.90;;
53503;SDS011;39387;50.998;22.340;2022-07-01T06:43:53;9.15;;;8.45;;
53503;SDS011;39387;50.998;22.340;2022-07-01T06:46:21;9.23;;;8.43;;
53503;SDS011;39387;50.998;22.340;2022-07-01T06:48:50;9.10;;;8.40;;
53503;SDS011;39387;50.998;22.340;2022-07-01T06:51:17;8.45;;;7.82;;
53503;SDS011;39387;50.998;22.340;2022-07-01T06:53:45;9.40;;;8.50;;
53503;SDS011;39387;50.998;22.340;2022-07-01T06:56:12;8.45;;;7.75;;
53503;SDS011;39387;50.998;22.340;2022-07-01T06:58:40;9.15;;;8.18;;
53503;SDS011;39387;50.998;22.340;2022-07-01T07:01:08;8.40;;;7.60;;
53503;SDS011;39387;50.998;22.340;2022-07-01T07:03:35;9.07;;;8.30;;
53503;SDS011;39387;50.998;22.340;2022-07-01T07:06:04;8.90;;;8.00;;
53503;SDS011;39387;50.998;22.340;2022-07-01T07:08:32;9.40;;;8.48;;
53503;SDS011;39387;50.998;22.340;2022-07-01T07:10:59;8.40;;;7.72;;
53503;SDS011;39387;50.998;22.340;2022-07-01T07:13:28;8.65;;;7.95;;
53503;SDS011;39387;50.998;22.340;2022-07-01T07:15:55;8.35;;;7.53;;
53503;SDS011;39387;50.998;22.340;2022-07-01T07:18:23;7.72;;;7.15;;
53503;SDS011;39387;50.998;22.340;2022-07-01T07:20:50;7.47;;;6.78;;
53503;SDS011;39387;50.998;22.340;2022-07-01T07:23:19;7.95;;;7.25;;
53503;SDS011;39387;50.998;22.340;2022-07-01T07:25:48;8.60;;;7.90;;
53503;SDS011;39387;50.998;22.340;2022-07-01T07:28:15;8.27;;;7.57;;
53503;SDS011;39387;50.998;22.340;2022-07-01T07:30:43;8.18;;;7.45;;
53503;SDS011;39387;50.998;22.340;2022-07-01T07:33:10;8.80;;;8.00;;
53503;SDS011;39387;50.998;22.340;2022-07-01T07:35:37;8.70;;;7.80;;
53503;SDS011;39387;50.998;22.340;2022-07-01T07:38:04;8.52;;;7.82;;
53503;SDS011;39387;50.998;22.340;2022-07-01T07:40:34;8.82;;;7.97;;
53503;SDS011;39387;50.998;22.340;2022-07-01T07:43:02;8.07;;;7.47;;
53503;SDS011;39387;50.998;22.340;2022-07-01T07:45:31;9.52;;;7.90;;
53503;SDS011;39387;50.998;22.340;2022-07-01T07:47:58;7.97;;;7.30;;
53503;SDS011;39387;50.998;22.340;2022-07-01T07:50:26;8.50;;;7.80;;
53503;SDS011;39387;50.998;22.340;2022-07-01T07:52:54;8.20;;;7.50;;
53503;SDS011;39387;50.998;22.340;2022-07-01T07:55:21;8.90;;;8.00;;
53503;SDS011;39387;50.998;22.340;2022-07-01T07:57:50;7.82;;;7.22;;
53503;SDS011;39387;50.998;22.340;2022-07-01T08:00:17;8.50;;;7.80;;
53503;SDS011;39387;50.998;22.340;2022-07-01T08:02:46;8.60;;;7.90;;
53503;SDS011;39387;50.998;22.340;2022-07-01T08:05:13;8.10;;;7.40;;
53503;SDS011;39387;50.998;22.340;2022-07-01T08:07:41;8.48;;;7.72;;
53503;SDS011;39387;50.998;22.340;2022-07-01T08:10:10;8.25;;;7.55;;
53503;SDS011;39387;50.998;22.340;2022-07-01T08:12:39;7.88;;;7.28;;
53503;SDS011;39387;50.998;22.340;2022-07-01T08:15:09;8.15;;;7.45;;
53503;SDS011;39387;50.998;22.340;2022-07-01T08:17:36;8.20;;;7.40;;
53503;SDS011;39387;50.998;22.340;2022-07-01T08:20:05;8.40;;;7.53;;
53503;SDS011;39387;50.998;22.340;2022-07-01T08:22:33;7.85;;;7.00;;
53503;SDS011;39387;50.998;22.340;2022-07-01T08:25:00;8.23;;;7.53;;
53503;SDS011;39387;50.998;22.340;2022-07-01T08:27:29;7.30;;;6.60;;
53503;SDS011;39387;50.998;22.340;2022-07-01T08:29:56;7.72;;;7.07;;
53503;SDS011;39387;50.998;22.340;2022-07-01T08:32:25;7.80;;;7.10;;
53503;SDS011;39387;50.998;22.340;2022-07-01T08:34:54;7.95;;;7.15;;
53503;SDS011;39387;50.998;22.340;2022-07-01T08:37:21;7.50;;;6.80;;
53503;SDS011;39387;50.998;22.340;2022-07-01T08:39:48;7.60;;;6.90;;
53503;SDS011;39387;50.998;22.340;2022-07-01T08:42:16;8.15;;;7.40;;
53503;SDS011;39387;50.998;22.340;2022-07-01T08:44:44;7.97;;;7.22;;
53503;SDS011;39387;50.998;22.340;2022-07-01T08:47:11;7.72;;;7.13;;
53503;SDS011;39387;50.998;22.340;2022-07-01T08:49:41;6.97;;;6.47;;
53503;SDS011;39387;50.998;22.340;2022-07-01T08:52:08;6.55;;;5.95;;
53503;SDS011;39387;50.998;22.340;2022-07-01T08:54:36;6.82;;;6.30;;
53503;SDS011;39387;50.998;22.340;2022-07-01T08:57:04;6.43;;;5.93;;
53503;SDS011;39387;50.998;22.340;2022-07-01T08:59:32;6.50;;;5.90;;
53503;SDS011;39387;50.998;22.340;2022-07-01T09:02:00;6.78;;;6.28;;
53503;SDS011;39387;50.998;22.340;2022-07-01T09:04:29;6.57;;;5.85;;
53503;SDS011;39387;50.998;22.340;2022-07-01T09:07:00;6.47;;;5.85;;
53503;SDS011;39387;50.998;22.340;2022-07-01T09:09:31;6.60;;;6.00;;
53503;SDS011;39387;50.998;22.340;2022-07-01T09:12:01;6.90;;;6.38;;
53503;SDS011;39387;50.998;22.340;2022-07-01T09:14:28;6.38;;;5.80;;
53503;SDS011;39387;50.998;22.340;2022-07-01T09:16:57;6.32;;;5.78;;
53503;SDS011;39387;50.998;22.340;2022-07-01T09:19:26;6.75;;;6.00;;
53503;SDS011;39387;50.998;22.340;2022-07-01T09:21:54;6.00;;;5.50;;
53503;SDS011;39387;50.998;22.340;2022-07-01T09:24:28;6.75;;;6.25;;
53503;SDS011;39387;50.998;22.340;2022-07-01T09:26:57;5.80;;;5.30;;
53503;SDS011;39387;50.998;22.340;2022-07-01T09:29:29;5.93;;;5.43;;
53503;SDS011;39387;50.998;22.340;2022-07-01T09:31:59;6.22;;;5.57;;
53503;SDS011;39387;50.998;22.340;2022-07-01T09:34:31;6.97;;;6.28;;
53503;SDS011;39387;50.998;22.340;2022-07-01T09:36:59;6.90;;;6.13;;
53503;SDS011;39387;50.998;22.340;2022-07-01T09:39:28;6.05;;;5.45;;
53503;SDS011;39387;50.998;22.340;2022-07-01T09:41:56;5.80;;;5.30;;
53503;SDS011;39387;50.998;22.340;2022-07-01T09:44:24;5.65;;;5.15;;
53503;SDS011;39387;50.998;22.340;2022-07-01T09:46:54;5.82;;;5.35;;
53503;SDS011;39387;50.998;22.340;2022-07-01T09:49:23;6.07;;;5.57;;
53503;SDS011;39387;50.998;22.340;2022-07-01T09:51:51;7.30;;;6.50;;
53503;SDS011;39387;50.998;22.340;2022-07-01T09:54:18;6.63;;;6.13;;
53503;SDS011;39387;50.998;22.340;2022-07-01T09:56:48;6.32;;;5.80;;
53503;SDS011;39387;50.998;22.340;2022-07-01T09:59:15;6.38;;;5.88;;
53503;SDS011;39387;50.998;22.340;2022-07-01T10:01:43;6.57;;;6.07;;
53503;SDS011;39387;50.998;22.340;2022-07-01T10:04:11;8.35;;;6.40;;
53503;SDS011;39387;50.998;22.340;2022-07-01T10:06:46;6.97;;;6.38;;
53503;SDS011;39387;50.998;22.340;2022-07-01T10:09:22;7.10;;;6.50;;
53503;SDS011;39387;50.998;22.340;2022-07-01T10:12:07;8.67;;;6.63;;
53503;SDS011;39387;50.998;22.340;2022-07-01T10:14:57;6.65;;;5.75;;
53503;SDS011;39387;50.998;22.340;2022-07-01T10:17:26;7.55;;;6.80;;
53503;SDS011;39387;50.998;22.340;2022-07-01T10:19:54;7.70;;;7.00;;
53503;SDS011;39387;50.998;22.340;2022-07-01T10:22:26;7.70;;;7.00;;
53503;SDS011;39387;50.998;22.340;2022-07-01T10:24:54;8.73;;;6.78;;
53503;SDS011;39387;50.998;22.340;2022-07-01T10:27:24;7.68;;;6.95;;
53503;SDS011;39387;50.998;22.340;2022-07-01T10:32:46;7.53;;;6.80;;
53503;SDS011;39387;50.998;22.340;2022-07-01T10:35:14;7.57;;;6.88;;
53503;SDS011;39387;50.998;22.340;2022-07-01T10:43:12;7.50;;;6.90;;
53503;SDS011;39387;50.998;22.340;2022-07-01T10:45:43;7.72;;;7.00;;
53503;SDS011;39387;50.998;22.340;2022-07-01T10:48:19;7.55;;;6.85;;
53503;SDS011;39387;50.998;22.340;2022-07-01T10:50:48;7.50;;;6.93;;
53503;SDS011;39387;50.998;22.340;2022-07-01T10:53:16;6.72;;;6.13;;
53503;SDS011;39387;50.998;22.340;2022-07-01T10:55:44;6.70;;;6.10;;
53503;SDS011;39387;50.998;22.340;2022-07-01T10:58:14;7.05;;;6.45;;
53503;SDS011;39387;50.998;22.340;2022-07-01T11:00:44;7.13;;;6.32;;
53503;SDS011;39387;50.998;22.340;2022-07-01T11:03:16;7.13;;;6.38;;
53503;SDS011;39387;50.998;22.340;2022-07-01T11:05:47;8.13;;;7.10;;
53503;SDS011;39387;50.998;22.340;2022-07-01T11:08:16;7.72;;;6.93;;
53503;SDS011;39387;50.998;22.340;2022-07-01T11:10:43;7.25;;;6.65;;
53503;SDS011;39387;50.998;22.340;2022-07-01T11:13:15;7.80;;;7.10;;
53503;SDS011;39387;50.998;22.340;2022-07-01T11:15:44;7.57;;;6.88;;
53503;SDS011;39387;50.998;22.340;2022-07-01T11:18:13;7.25;;;6.55;;
53503;SDS011;39387;50.998;22.340;2022-07-01T11:20:41;7.33;;;6.73;;
53503;SDS011;39387;50.998;22.340;2022-07-01T11:23:09;7.50;;;6.80;;
53503;SDS011;39387;50.998;22.340;2022-07-01T11:25:36;7.18;;;6.47;;
53503;SDS011;39387;50.998;22.340;2022-07-01T11:28:03;7.20;;;5.80;;
53503;SDS011;39387;50.998;22.340;2022-07-01T11:30:32;7.88;;;7.20;;
53503;SDS011;39387;50.998;22.340;2022-07-01T11:32:59;10.87;;;9.77;;
53503;SDS011;39387;50.998;22.340;2022-07-01T11:35:27;11.63;;;10.57;;
53503;SDS011;39387;50.998;22.340;2022-07-01T11:38:14;10.55;;;9.48;;
53503;SDS011;39387;50.998;22.340;2022-07-01T11:41:00;10.93;;;9.85;;
53503;SDS011;39387;50.998;22.340;2022-07-01T11:43:29;6.93;;;6.32;;
53503;SDS011;39387;50.998;22.340;2022-07-01T11:46:00;7.95;;;7.25;;
53503;SDS011;39387;50.998;22.340;2022-07-01T11:48:29;8.00;;;7.30;;
53503;SDS011;39387;50.998;22.340;2022-07-01T11:51:01;8.07;;;7.47;;
53503;SDS011;39387;50.998;22.340;2022-07-01T11:53:32;7.85;;;7.10;;
53503;SDS011;39387;50.998;22.340;2022-07-01T11:56:00;7.43;;;6.82;;
53503;SDS011;39387;50.998;22.340;2022-07-01T12:01:12;8.77;;;8.07;;
53503;SDS011;39387;50.998;22.340;2022-07-01T12:03:50;7.57;;;6.97;;
53503;SDS011;39387;50.998;22.340;2022-07-01T12:06:17;7.45;;;6.70;;
53503;SDS011;39387;50.998;22.340;2022-07-01T12:08:46;6.18;;;5.65;;
53503;SDS011;39387;50.998;22.340;2022-07-01T12:11:15;8.23;;;7.63;;
53503;SDS011;39387;50.998;22.340;2022-07-01T12:13:43;6.95;;;6.25;;
53503;SDS011;39387;50.998;22.340;2022-07-01T12:16:12;6.15;;;5.65;;
53503;SDS011;39387;50.998;22.340;2022-07-01T12:18:50;5.78;;;5.32;;
53503;SDS011;39387;50.998;22.340;2022-07-01T12:21:18;6.53;;;5.95;;
53503;SDS011;39387;50.998;22.340;2022-07-01T12:26:35;6.40;;;5.90;;
53503;SDS011;39387;50.998;22.340;2022-07-01T12:29:03;6.10;;;5.70;;
53503;SDS011;39387;50.998;22.340;2022-07-01T12:31:31;6.30;;;5.80;;
53503;SDS011;39387;50.998;22.340;2022-07-01T12:34:00;7.82;;;7.32;;
53503;SDS011;39387;50.998;22.340;2022-07-01T12:36:28;7.50;;;6.90;;
53503;SDS011;39387;50.998;22.340;2022-07-01T12:39:05;7.38;;;6.68;;
53503;SDS011;39387;50.998;22.340;2022-07-01T12:41:33;6.40;;;5.90;;
53503;SDS011;39387;50.998;22.340;2022-07-01T12:44:05;6.93;;;6.47;;
53503;SDS011;39387;50.998;22.340;2022-07-01T12:46:34;6.60;;;6.03;;
53503;SDS011;39387;50.998;22.340;2022-07-01T12:49:02;6.38;;;5.43;;
53503;SDS011;39387;50.998;22.340;2022-07-01T12:51:29;5.93;;;5.43;;
53503;SDS011;39387;50.998;22.340;2022-07-01T12:53:58;6.55;;;5.95;;
53503;SDS011;39387;50.998;22.340;2022-07-01T12:56:26;6.70;;;6.07;;
53503;SDS011;39387;50.998;22.340;2022-07-01T12:58:54;6.25;;;5.72;;
53503;SDS011;39387;50.998;22.340;2022-07-01T13:01:23;6.50;;;5.90;;
53503;SDS011;39387;50.998;22.340;2022-07-01T13:03:52;6.15;;;5.60;;
53503;SDS011;39387;50.998;22.340;2022-07-01T13:06:20;6.72;;;6.03;;
53503;SDS011;39387;50.998;22.340;2022-07-01T13:08:47;7.65;;;5.68;;
53503;SDS011;39387;50.998;22.340;2022-07-01T13:11:14;6.15;;;5.65;;
53503;SDS011;39387;50.998;22.340;2022-07-01T13:13:41;7.55;;;6.50;;
53503;SDS011;39387;50.998;22.340;2022-07-01T13:16:09;7.28;;;6.68;;
53503;SDS011;39387;50.998;22.340;2022-07-01T13:18:36;6.20;;;5.72;;
53503;SDS011;39387;50.998;22.340;2022-07-01T13:21:05;6.78;;;6.18;;
53503;SDS011;39387;50.998;22.340;2022-07-01T13:23:32;6.07;;;5.53;;
53503;SDS011;39387;50.998;22.340;2022-07-01T13:26:00;6.60;;;6.10;;
53503;SDS011;39387;50.998;22.340;2022-07-01T13:28:27;6.90;;;6.30;;
53503;SDS011;39387;50.998;22.340;2022-07-01T13:30:55;6.63;;;6.13;;
53503;SDS011;39387;50.998;22.340;2022-07-01T13:33:22;9.20;;;6.40;;
53503;SDS011;39387;50.998;22.340;2022-07-01T13:35:50;6.70;;;6.07;;
53503;SDS011;39387;50.998;22.340;2022-07-01T13:38:18;7.00;;;6.30;;
53503;SDS011;39387;50.998;22.340;2022-07-01T13:40:46;6.72;;;6.22;;
53503;SDS011;39387;50.998;22.340;2022-07-01T13:43:13;7.20;;;6.55;;
53503;SDS011;39387;50.998;22.340;2022-07-01T13:45:42;6.53;;;6.05;;
53503;SDS011;39387;50.998;22.340;2022-07-01T13:48:09;6.65;;;6.05;;
53503;SDS011;39387;50.998;22.340;2022-07-01T13:50:37;8.10;;;6.60;;
53503;SDS011;39387;50.998;22.340;2022-07-01T13:53:04;6.85;;;6.07;;
53503;SDS011;39387;50.998;22.340;2022-07-01T13:55:33;7.30;;;6.60;;
53503;SDS011;39387;50.998;22.340;2022-07-01T13:58:00;7.03;;;6.33;;
53503;SDS011;39387;50.998;22.340;2022-07-01T14:00:28;7.10;;;6.40;;
53503;SDS011;39387;50.998;22.340;2022-07-01T14:02:55;7.57;;;6.88;;
53503;SDS011;39387;50.998;22.340;2022-07-01T14:05:22;6.72;;;6.13;;
53503;SDS011;39387;50.998;22.340;2022-07-01T14:07:49;6.93;;;6.20;;
53503;SDS011;39387;50.998;22.340;2022-07-01T14:10:17;6.70;;;6.20;;
53503;SDS011;39387;50.998;22.340;2022-07-01T14:12:46;6.70;;;6.20;;
53503;SDS011;39387;50.998;22.340;2022-07-01T14:15:13;6.23;;;5.70;;
53503;SDS011;39387;50.998;22.340;2022-07-01T14:17:41;6.88;;;6.38;;
53503;SDS011;39387;50.998;22.340;2022-07-01T14:20:10;6.50;;;5.95;;
53503;SDS011;39387;50.998;22.340;2022-07-01T14:22:38;6.20;;;5.70;;
53503;SDS011;39387;50.998;22.340;2022-07-01T14:25:06;6.68;;;6.18;;
53503;SDS011;39387;50.998;22.340;2022-07-01T14:27:34;6.32;;;5.82;;
53503;SDS011;39387;50.998;22.340;2022-07-01T14:30:03;6.50;;;5.90;;
53503;SDS011;39387;50.998;22.340;2022-07-01T14:32:31;6.60;;;5.93;;
53503;SDS011;39387;50.998;22.340;2022-07-01T14:34:59;6.97;;;6.40;;
53503;SDS011;39387;50.998;22.340;2022-07-01T14:37:27;7.40;;;5.93;;
53503;SDS011;39387;50.998;22.340;2022-07-01T14:39:55;6.40;;;5.80;;
53503;SDS011;39387;50.998;22.340;2022-07-01T14:42:24;7.53;;;5.87;;
53503;SDS011;39387;50.998;22.340;2022-07-01T14:44:51;6.68;;;6.13;;
53503;SDS011;39387;50.998;22.340;2022-07-01T14:47:21;6.70;;;6.20;;
53503;SDS011;39387;50.998;22.340;2022-07-01T14:49:48;6.67;;;6.07;;
53503;SDS011;39387;50.998;22.340;2022-07-01T14:52:17;6.03;;;5.55;;
53503;SDS011;39387;50.998;22.340;2022-07-01T14:54:44;6.68;;;6.05;;
53503;SDS011;39387;50.998;22.340;2022-07-01T14:57:11;6.43;;;5.90;;